sensor_id;sensor_type;location;lat;lon;timestamp;pressure;altitude;pressure_sealevel;temperature;humidity
28626;BME280;18905;42.668;23.364;2023-03-14T00:00:32;95316.72;;;4.11;68.80
28626;BME280;18905;42.668;23.364;2023-03-14T00:02:57;95310.88;;;4.09;69.07
28626;BME280;18905;42.668;23.364;2023-03-14T00:05:22;95283.16;;;3.85;69.42
28626;BME280;18905;42.668;23.364;2023-03-14T00:07:48;95294.84;;;4.04;70.30
28626;BME280;18905;42.668;23.364;2023-03-14T00:10:14;95292.97;;;4.05;70.45
28626;BME280;18905;42.668;23.364;2023-03-14T00:12:41;95286.34;;;3.87;71.02
28626;BME280;18905;42.668;23.364;2023-03-14T00:15:07;95287.69;;;3.85;71.55
28626;BME280;18905;42.668;23.364;2023-03-14T00:17:34;95290.88;;;3.97;71.25
28626;BME280;18905;42.668;23.364;2023-03-14T00:20:00;95287.66;;;3.90;71.79
28626;BME280;18905;42.668;23.364;2023-03-14T00:22:31;95267.63;;;3.92;71.73
28626;BME280;18905;42.668;23.364;2023-03-14T00:24:57;95255.88;;;3.88;72.88
28626;BME280;18905;42.668;23.364;2023-03-14T00:27:22;95274.56;;;4.03;72.75
28626;BME280;18905;42.668;23.364;2023-03-14T00:29:48;95260.91;;;4.10;73.37
28626;BME280;18905;42.668;23.364;2023-03-14T00:32:13;95256.41;;;3.95;73.91
28626;BME280;18905;42.668;23.364;2023-03-14T00:34:39;95257.16;;;4.11;73.83
28626;BME280;18905;42.668;23.364;2023-03-14T00:37:05;95246.44;;;4.16;73.99
28626;BME280;18905;42.668;23.364;2023-03-14T00:39:30;95251.41;;;4.42;73.67
28626;BME280;18905;42.668;23.364;2023-03-14T00:41:56;95257.94;;;4.16;73.22
28626;BME280;18905;42.668;23.364;2023-03-14T00:44:21;95250.72;;;4.12;73.39
28626;BME280;18905;42.668;23.364;2023-03-14T00:46:47;95246.19;;;4.17;73.83
28626;BME280;18905;42.668;23.364;2023-03-14T00:49:12;95244.63;;;4.01;74.63
28626;BME280;18905;42.668;23.364;2023-03-14T00:51:38;95240.34;;;4.05;75.39
28626;BME280;18905;42.668;23.364;2023-03-14T00:54:03;95247.06;;;3.93;75.82
28626;BME280;18905;42.668;23.364;2023-03-14T00:56:28;95228.38;;;3.88;77.33
28626;BME280;18905;42.668;23.364;2023-03-14T00:58:55;95234.78;;;3.92;78.25
28626;BME280;18905;42.668;23.364;2023-03-14T01:01:21;95222.09;;;3.39;81.20
28626;BME280;18905;42.668;23.364;2023-03-14T01:03:47;95240.69;;;3.79;83.19
28626;BME280;18905;42.668;23.364;2023-03-14T01:06:17;95242.75;;;4.02;80.67
28626;BME280;18905;42.668;23.364;2023-03-14T01:08:44;95234.78;;;3.82;80.40
28626;BME280;18905;42.668;23.364;2023-03-14T01:11:12;95236.16;;;3.69;80.97
28626;BME280;18905;42.668;23.364;2023-03-14T01:13:38;95227.38;;;3.74;82.02
28626;BME280;18905;42.668;23.364;2023-03-14T01:16:06;95234.28;;;3.75;81.50
28626;BME280;18905;42.668;23.364;2023-03-14T01:18:33;95235.84;;;3.86;81.04
28626;BME280;18905;42.668;23.364;2023-03-14T01:21:01;95211.09;;;3.55;80.88
28626;BME280;18905;42.668;23.364;2023-03-14T01:23:26;95216.22;;;3.47;82.51
28626;BME280;18905;42.668;23.364;2023-03-14T01:25:52;95213.00;;;3.45;84.20
28626;BME280;18905;42.668;23.364;2023-03-14T01:28:17;95199.16;;;3.33;83.86
28626;BME280;18905;42.668;23.364;2023-03-14T01:30:43;95205.81;;;3.45;83.79
28626;BME280;18905;42.668;23.364;2023-03-14T01:33:08;95213.56;;;3.42;83.70
28626;BME280;18905;42.668;23.364;2023-03-14T01:35:34;95210.03;;;3.66;83.22
28626;BME280;18905;42.668;23.364;2023-03-14T01:37:59;95205.28;;;3.43;83.88
28626;BME280;18905;42.668;23.364;2023-03-14T01:40:24;95196.44;;;3.48;86.13
28626;BME280;18905;42.668;23.364;2023-03-14T01:42:58;95175.31;;;3.66;84.78
28626;BME280;18905;42.668;23.364;2023-03-14T01:48:23;95187.19;;;3.99;82.55
28626;BME280;18905;42.668;23.364;2023-03-14T01:50:49;95192.75;;;4.12;84.25
28626;BME280;18905;42.668;23.364;2023-03-14T01:53:14;95188.47;;;4.16;84.84
28626;BME280;18905;42.668;23.364;2023-03-14T01:55:40;95193.50;;;4.18;85.74
28626;BME280;18905;42.668;23.364;2023-03-14T01:58:06;95189.47;;;4.20;87.05
28626;BME280;18905;42.668;23.364;2023-03-14T02:00:32;95194.59;;;4.17;89.25
28626;BME280;18905;42.668;23.364;2023-03-14T02:03:17;95186.94;;;3.95;91.87
28626;BME280;18905;42.668;23.364;2023-03-14T02:05:46;95183.03;;;3.78;94.62
28626;BME280;18905;42.668;23.364;2023-03-14T02:08:15;95183.56;;;3.70;96.19
28626;BME280;18905;42.668;23.364;2023-03-14T02:10:47;95195.44;;;3.14;100.00
28626;BME280;18905;42.668;23.364;2023-03-14T02:13:14;95189.06;;;3.10;100.00
28626;BME280;18905;42.668;23.364;2023-03-14T02:15:41;95169.22;;;3.41;100.00
28626;BME280;18905;42.668;23.364;2023-03-14T02:18:07;95170.06;;;3.36;100.00
28626;BME280;18905;42.668;23.364;2023-03-14T02:21:07;95181.56;;;3.12;100.00
28626;BME280;18905;42.668;23.364;2023-03-14T02:26:30;95175.63;;;3.40;100.00
28626;BME280;18905;42.668;23.364;2023-03-14T02:28:59;95166.28;;;3.47;100.00
28626;BME280;18905;42.668;23.364;2023-03-14T02:31:24;95171.06;;;3.55;100.00
28626;BME280;18905;42.668;23.364;2023-03-14T02:33:50;95169.22;;;3.51;99.12
28626;BME280;18905;42.668;23.364;2023-03-14T02:36:18;95171.31;;;3.59;96.53
28626;BME280;18905;42.668;23.364;2023-03-14T02:39:08;95172.13;;;3.59;95.60
28626;BME280;18905;42.668;23.364;2023-03-14T02:41:35;95165.97;;;3.59;94.98
28626;BME280;18905;42.668;23.364;2023-03-14T02:44:01;95185.69;;;3.68;96.44
28626;BME280;18905;42.668;23.364;2023-03-14T02:46:26;95173.44;;;3.62;98.56
28626;BME280;18905;42.668;23.364;2023-03-14T02:48:58;95178.00;;;3.66;100.00
28626;BME280;18905;42.668;23.364;2023-03-14T02:51:27;95184.91;;;3.67;100.00
28626;BME280;18905;42.668;23.364;2023-03-14T02:53:54;95182.78;;;3.64;100.00
28626;BME280;18905;42.668;23.364;2023-03-14T02:56:19;95189.44;;;3.72;100.00
28626;BME280;18905;42.668;23.364;2023-03-14T02:58:45;95177.19;;;3.66;100.00
28626;BME280;18905;42.668;23.364;2023-03-14T03:01:10;95149.22;;;3.43;100.00
28626;BME280;18905;42.668;23.364;2023-03-14T03:03:35;95167.03;;;3.63;100.00
28626;BME280;18905;42.668;23.364;2023-03-14T03:06:01;95192.09;;;3.72;100.00
28626;BME280;18905;42.668;23.364;2023-03-14T03:08:27;95188.38;;;3.68;100.00
28626;BME280;18905;42.668;23.364;2023-03-14T03:10:54;95183.59;;;3.65;100.00
28626;BME280;18905;42.668;23.364;2023-03-14T03:13:20;95171.59;;;3.62;100.00
28626;BME280;18905;42.668;23.364;2023-03-14T03:15:45;95150.81;;;3.49;100.00
28626;BME280;18905;42.668;23.364;2023-03-14T03:18:11;95180.63;;;3.71;100.00
28626;BME280;18905;42.668;23.364;2023-03-14T03:20:37;95181.38;;;3.82;100.00
28626;BME280;18905;42.668;23.364;2023-03-14T03:23:03;95184.34;;;3.80;100.00
28626;BME280;18905;42.668;23.364;2023-03-14T03:25:29;95192.97;;;3.47;100.00
28626;BME280;18905;42.668;23.364;2023-03-14T03:27:54;95181.53;;;3.37;100.00
28626;BME280;18905;42.668;23.364;2023-03-14T03:30:20;95185.78;;;3.48;100.00
28626;BME280;18905;42.668;23.364;2023-03-14T03:32:45;95190.78;;;3.64;100.00
28626;BME280;18905;42.668;23.364;2023-03-14T03:35:11;95190.00;;;3.59;100.00
28626;BME280;18905;42.668;23.364;2023-03-14T03:37:37;95179.88;;;3.56;100.00
28626;BME280;18905;42.668;23.364;2023-03-14T03:40:03;95167.34;;;3.46;100.00
28626;BME280;18905;42.668;23.364;2023-03-14T03:42:31;95180.69;;;3.51;100.00
28626;BME280;18905;42.668;23.364;2023-03-14T03:44:57;95179.34;;;3.54;100.00
28626;BME280;18905;42.668;23.364;2023-03-14T03:47:22;95188.44;;;3.53;100.00
28626;BME280;18905;42.668;23.364;2023-03-14T03:49:47;95163.91;;;3.46;100.00
28626;BME280;18905;42.668;23.364;2023-03-14T03:52:13;95171.09;;;3.45;100.00
28626;BME280;18905;42.668;23.364;2023-03-14T03:54:38;95188.97;;;3.55;100.00
28626;BME280;18905;42.668;23.364;2023-03-14T03:57:04;95197.75;;;3.60;100.00
28626;BME280;18905;42.668;23.364;2023-03-14T03:59:29;95198.56;;;3.56;100.00
28626;BME280;18905;42.668;23.364;2023-03-14T04:01:54;95201.25;;;3.51;100.00
28626;BME280;18905;42.668;23.364;2023-03-14T04:04:20;95201.25;;;3.51;100.00
28626;BME280;18905;42.668;23.364;2023-03-14T04:06:45;95201.00;;;3.52;100.00
28626;BME280;18905;42.668;23.364;2023-03-14T04:09:11;95201.78;;;3.48;100.00
28626;BME280;18905;42.668;23.364;2023-03-14T04:11:37;95197.78;;;3.50;100.00
28626;BME280;18905;42.668;23.364;2023-03-14T04:14:03;95157.53;;;3.27;100.00
28626;BME280;18905;42.668;23.364;2023-03-14T04:16:28;95186.88;;;3.42;100.00
28626;BME280;18905;42.668;23.364;2023-03-14T04:18:56;95195.59;;;5.08;100.00
28626;BME280;18905;42.668;23.364;2023-03-14T04:21:22;95193.84;;;5.79;100.00
28626;BME280;18905;42.668;23.364;2023-03-14T04:23:47;95184.53;;;6.18;100.00
28626;BME280;18905;42.668;23.364;2023-03-14T04:26:13;95168.91;;;6.62;100.00
28626;BME280;18905;42.668;23.364;2023-03-14T04:28:38;95173.47;;;7.44;100.00
28626;BME280;18905;42.668;23.364;2023-03-14T04:31:12;95168.63;;;7.60;88.31
28626;BME280;18905;42.668;23.364;2023-03-14T04:33:38;95160.50;;;7.78;79.92
28626;BME280;18905;42.668;23.364;2023-03-14T04:36:05;95163.78;;;8.02;74.42
28626;BME280;18905;42.668;23.364;2023-03-14T04:38:31;95163.97;;;8.33;72.61
28626;BME280;18905;42.668;23.364;2023-03-14T04:40:57;95150.59;;;8.41;67.78
28626;BME280;18905;42.668;23.364;2023-03-14T04:43:22;95142.34;;;8.38;68.64
28626;BME280;18905;42.668;23.364;2023-03-14T04:45:48;95147.88;;;8.55;69.60
28626;BME280;18905;42.668;23.364;2023-03-14T04:48:14;95149.50;;;8.78;67.88
28626;BME280;18905;42.668;23.364;2023-03-14T04:50:39;95153.53;;;8.89;65.32
28626;BME280;18905;42.668;23.364;2023-03-14T04:53:05;95156.25;;;8.67;63.00
28626;BME280;18905;42.668;23.364;2023-03-14T04:55:31;95146.13;;;8.10;61.44
28626;BME280;18905;42.668;23.364;2023-03-14T04:57:58;95136.09;;;7.48;62.70
28626;BME280;18905;42.668;23.364;2023-03-14T05:00:23;95147.81;;;7.06;65.20
28626;BME280;18905;42.668;23.364;2023-03-14T05:02:49;95138.94;;;6.74;68.86
28626;BME280;18905;42.668;23.364;2023-03-14T05:05:14;95146.59;;;6.30;72.12
28626;BME280;18905;42.668;23.364;2023-03-14T05:07:40;95147.50;;;6.02;75.51
28626;BME280;18905;42.668;23.364;2023-03-14T05:10:05;95147.94;;;5.62;78.41
28626;BME280;18905;42.668;23.364;2023-03-14T05:12:31;95151.69;;;5.37;82.37
28626;BME280;18905;42.668;23.364;2023-03-14T05:14:56;95153.19;;;5.20;85.45
28626;BME280;18905;42.668;23.364;2023-03-14T05:17:21;95145.81;;;5.07;86.95
28626;BME280;18905;42.668;23.364;2023-03-14T05:19:47;95135.78;;;4.94;89.43
28626;BME280;18905;42.668;23.364;2023-03-14T05:22:12;95140.63;;;4.92;89.52
28626;BME280;18905;42.668;23.364;2023-03-14T05:24:38;95142.22;;;4.93;88.00
28626;BME280;18905;42.668;23.364;2023-03-14T05:27:04;95143.91;;;5.12;99.81
28626;BME280;18905;42.668;23.364;2023-03-14T05:29:30;95139.06;;;5.14;88.38
28626;BME280;18905;42.668;23.364;2023-03-14T05:31:55;95145.91;;;4.97;87.96
28626;BME280;18905;42.668;23.364;2023-03-14T05:34:20;95125.34;;;4.20;90.30
28626;BME280;18905;42.668;23.364;2023-03-14T05:36:46;95133.81;;;3.89;95.35
28626;BME280;18905;42.668;23.364;2023-03-14T05:39:11;95133.41;;;3.62;97.99
28626;BME280;18905;42.668;23.364;2023-03-14T05:41:37;95128.69;;;3.39;100.00
28626;BME280;18905;42.668;23.364;2023-03-14T05:44:02;95139.66;;;3.22;100.00
28626;BME280;18905;42.668;23.364;2023-03-14T05:46:28;95125.78;;;3.30;100.00
28626;BME280;18905;42.668;23.364;2023-03-14T05:48:56;95139.34;;;3.44;100.00
28626;BME280;18905;42.668;23.364;2023-03-14T05:51:22;95135.38;;;3.31;100.00
28626;BME280;18905;42.668;23.364;2023-03-14T05:53:47;95110.06;;;3.19;100.00
28626;BME280;18905;42.668;23.364;2023-03-14T05:56:12;95124.09;;;3.49;100.00
28626;BME280;18905;42.668;23.364;2023-03-14T05:58:38;95130.88;;;3.07;100.00
28626;BME280;18905;42.668;23.364;2023-03-14T06:01:05;95132.75;;;3.11;100.00
28626;BME280;18905;42.668;23.364;2023-03-14T06:03:31;95127.69;;;3.05;100.00
28626;BME280;18905;42.668;23.364;2023-03-14T06:05:57;95138.09;;;3.16;100.00
28626;BME280;18905;42.668;23.364;2023-03-14T06:08:22;95132.50;;;3.03;100.00
28626;BME280;18905;42.668;23.364;2023-03-14T06:10:48;95140.22;;;3.14;100.00
28626;BME280;18905;42.668;23.364;2023-03-14T06:13:13;95127.09;;;3.33;100.00
28626;BME280;18905;42.668;23.364;2023-03-14T06:15:40;95109.94;;;3.49;100.00
28626;BME280;18905;42.668;23.364;2023-03-14T06:18:06;95131.59;;;3.37;100.00
28626;BME280;18905;42.668;23.364;2023-03-14T06:20:31;95130.56;;;3.28;100.00
28626;BME280;18905;42.668;23.364;2023-03-14T06:22:58;95129.28;;;3.16;100.00
28626;BME280;18905;42.668;23.364;2023-03-14T06:25:23;95134.56;;;3.31;100.00
28626;BME280;18905;42.668;23.364;2023-03-14T06:27:49;95128.41;;;3.99;100.00
28626;BME280;18905;42.668;23.364;2023-03-14T06:30:14;95143.72;;;4.70;94.66
28626;BME280;18905;42.668;23.364;2023-03-14T06:32:40;95143.38;;;5.39;89.46
28626;BME280;18905;42.668;23.364;2023-03-14T06:35:05;95138.53;;;6.30;82.54
28626;BME280;18905;42.668;23.364;2023-03-14T06:37:31;95139.75;;;6.74;77.45
28626;BME280;18905;42.668;23.364;2023-03-14T06:39:56;95143.94;;;7.58;72.01
28626;BME280;18905;42.668;23.364;2023-03-14T06:42:22;95134.53;;;8.50;64.82
28626;BME280;18905;42.668;23.364;2023-03-14T06:44:47;95142.19;;;9.75;60.26
28626;BME280;18905;42.668;23.364;2023-03-14T06:47:12;95131.19;;;10.58;54.69
28626;BME280;18905;42.668;23.364;2023-03-14T06:49:38;95115.13;;;11.04;51.99
28626;BME280;18905;42.668;23.364;2023-03-14T06:52:03;95123.84;;;12.27;48.55
28626;BME280;18905;42.668;23.364;2023-03-14T06:54:29;95116.69;;;12.52;47.18
28626;BME280;18905;42.668;23.364;2023-03-14T06:56:54;95089.03;;;11.33;47.89
28626;BME280;18905;42.668;23.364;2023-03-14T06:59:20;95112.22;;;11.43;48.35
28626;BME280;18905;42.668;23.364;2023-03-14T07:01:45;95115.97;;;10.70;48.84
28626;BME280;18905;42.668;23.364;2023-03-14T07:04:11;95116.75;;;10.96;49.32
28626;BME280;18905;42.668;23.364;2023-03-14T07:06:36;95099.41;;;10.97;48.94
28626;BME280;18905;42.668;23.364;2023-03-14T07:09:02;95088.47;;;10.94;48.33
28626;BME280;18905;42.668;23.364;2023-03-14T07:11:27;95087.03;;;10.37;49.36
28626;BME280;18905;42.668;23.364;2023-03-14T07:13:53;95094.84;;;10.89;49.11
28626;BME280;18905;42.668;23.364;2023-03-14T07:16:18;95083.50;;;10.19;50.06
28626;BME280;18905;42.668;23.364;2023-03-14T07:18:45;95108.63;;;10.54;49.28
28626;BME280;18905;42.668;23.364;2023-03-14T07:21:10;95077.88;;;9.21;51.44
28626;BME280;18905;42.668;23.364;2023-03-14T07:23:36;95093.56;;;8.97;53.20
28626;BME280;18905;42.668;23.364;2023-03-14T07:26:02;95094.22;;;9.55;51.73
28626;BME280;18905;42.668;23.364;2023-03-14T07:28:27;95100.84;;;9.88;50.12
28626;BME280;18905;42.668;23.364;2023-03-14T07:30:53;95100.78;;;9.71;50.70
28626;BME280;18905;42.668;23.364;2023-03-14T07:33:19;95087.16;;;10.15;49.22
28626;BME280;18905;42.668;23.364;2023-03-14T07:35:47;95088.47;;;10.68;48.49
28626;BME280;18905;42.668;23.364;2023-03-14T07:38:12;95080.13;;;11.24;47.97
28626;BME280;18905;42.668;23.364;2023-03-14T07:40:37;95091.16;;;11.11;47.50
28626;BME280;18905;42.668;23.364;2023-03-14T07:43:03;95074.78;;;10.99;47.86
28626;BME280;18905;42.668;23.364;2023-03-14T07:45:28;95082.75;;;10.87;48.27
28626;BME280;18905;42.668;23.364;2023-03-14T07:47:53;95063.53;;;10.71;47.55
28626;BME280;18905;42.668;23.364;2023-03-14T07:50:23;95069.06;;;10.15;47.87
28626;BME280;18905;42.668;23.364;2023-03-14T07:52:49;95061.63;;;10.55;47.43
28626;BME280;18905;42.668;23.364;2023-03-14T07:55:14;95068.25;;;10.15;48.42
28626;BME280;18905;42.668;23.364;2023-03-14T07:57:40;95054.00;;;10.65;48.14
28626;BME280;18905;42.668;23.364;2023-03-14T08:00:06;95065.72;;;11.12;46.89
28626;BME280;18905;42.668;23.364;2023-03-14T08:02:32;95060.66;;;10.93;46.79
28626;BME280;18905;42.668;23.364;2023-03-14T08:04:57;95058.19;;;11.26;46.68
28626;BME280;18905;42.668;23.364;2023-03-14T08:07:23;95065.34;;;11.22;46.03
28626;BME280;18905;42.668;23.364;2023-03-14T08:09:48;95046.00;;;11.03;46.11
28626;BME280;18905;42.668;23.364;2023-03-14T08:12:14;95066.81;;;11.11;45.88
28626;BME280;18905;42.668;23.364;2023-03-14T08:14:39;95029.81;;;10.86;45.65
28626;BME280;18905;42.668;23.364;2023-03-14T08:17:04;95048.38;;;11.21;45.53
28626;BME280;18905;42.668;23.364;2023-03-14T08:19:31;95036.97;;;11.62;44.72
28626;BME280;18905;42.668;23.364;2023-03-14T08:21:56;95062.53;;;12.52;44.10
28626;BME280;18905;42.668;23.364;2023-03-14T08:24:22;95056.41;;;12.63;43.26
28626;BME280;18905;42.668;23.364;2023-03-14T08:26:47;95063.56;;;11.89;44.12
28626;BME280;18905;42.668;23.364;2023-03-14T08:29:12;95056.56;;;10.70;45.64
28626;BME280;18905;42.668;23.364;2023-03-14T08:31:38;95060.69;;;10.68;46.05
28626;BME280;18905;42.668;23.364;2023-03-14T08:34:03;95054.63;;;10.54;46.69
28626;BME280;18905;42.668;23.364;2023-03-14T08:36:29;95049.34;;;11.08;45.81
28626;BME280;18905;42.668;23.364;2023-03-14T08:38:54;95052.59;;;12.15;43.65
28626;BME280;18905;42.668;23.364;2023-03-14T08:41:20;95043.03;;;12.38;42.95
28626;BME280;18905;42.668;23.364;2023-03-14T08:43:45;95039.47;;;12.25;42.79
28626;BME280;18905;42.668;23.364;2023-03-14T08:46:11;95017.22;;;12.61;42.94
28626;BME280;18905;42.668;23.364;2023-03-14T08:48:36;95033.03;;;12.59;42.80
28626;BME280;18905;42.668;23.364;2023-03-14T08:51:09;95021.75;;;12.89;41.43
28626;BME280;18905;42.668;23.364;2023-03-14T08:53:36;95027.47;;;13.41;40.51
28626;BME280;18905;42.668;23.364;2023-03-14T08:56:02;95017.72;;;13.40;40.30
28626;BME280;18905;42.668;23.364;2023-03-14T08:58:29;95013.91;;;13.41;40.57
28626;BME280;18905;42.668;23.364;2023-03-14T09:00:55;95006.47;;;13.05;41.44
28626;BME280;18905;42.668;23.364;2023-03-14T09:03:20;95001.09;;;13.17;40.70
28626;BME280;18905;42.668;23.364;2023-03-14T09:05:48;94990.06;;;13.58;39.33
28626;BME280;18905;42.668;23.364;2023-03-14T09:08:13;95005.47;;;13.10;40.05
28626;BME280;18905;42.668;23.364;2023-03-14T09:10:39;94984.06;;;11.73;41.08
28626;BME280;18905;42.668;23.364;2023-03-14T09:13:04;94982.22;;;11.94;40.53
28626;BME280;18905;42.668;23.364;2023-03-14T09:15:30;94981.09;;;12.16;40.66
28626;BME280;18905;42.668;23.364;2023-03-14T09:17:55;94985.28;;;12.87;39.77
28626;BME280;18905;42.668;23.364;2023-03-14T09:20:21;94985.06;;;12.92;39.38
28626;BME280;18905;42.668;23.364;2023-03-14T09:22:46;94964.72;;;12.53;40.01
28626;BME280;18905;42.668;23.364;2023-03-14T09:25:11;94944.41;;;12.92;40.27
28626;BME280;18905;42.668;23.364;2023-03-14T09:27:37;94946.00;;;13.49;39.15
28626;BME280;18905;42.668;23.364;2023-03-14T09:30:03;94947.56;;;13.74;39.18
28626;BME280;18905;42.668;23.364;2023-03-14T09:32:30;94938.31;;;14.39;38.18
28626;BME280;18905;42.668;23.364;2023-03-14T09:34:56;94941.81;;;14.39;37.03
28626;BME280;18905;42.668;23.364;2023-03-14T09:37:22;94933.34;;;13.29;37.96
28626;BME280;18905;42.668;23.364;2023-03-14T09:39:47;94923.50;;;13.13;38.18
28626;BME280;18905;42.668;23.364;2023-03-14T09:42:15;94935.03;;;13.70;37.93
28626;BME280;18905;42.668;23.364;2023-03-14T09:47:22;94919.88;;;14.32;37.46
28626;BME280;18905;42.668;23.364;2023-03-14T09:49:48;94901.84;;;14.67;36.54
28626;BME280;18905;42.668;23.364;2023-03-14T09:52:22;94904.88;;;15.09;37.06
28626;BME280;18905;42.668;23.364;2023-03-14T09:54:53;94909.94;;;13.49;39.20
28626;BME280;18905;42.668;23.364;2023-03-14T09:57:22;94889.81;;;13.38;39.67
28626;BME280;18905;42.668;23.364;2023-03-14T09:59:49;94889.34;;;13.72;39.93
28626;BME280;18905;42.668;23.364;2023-03-14T10:02:27;94895.06;;;14.46;39.53
28626;BME280;18905;42.668;23.364;2023-03-14T10:04:54;94884.84;;;13.16;40.91
28626;BME280;18905;42.668;23.364;2023-03-14T10:07:32;94880.22;;;13.52;40.84
28626;BME280;18905;42.668;23.364;2023-03-14T10:09:58;94874.16;;;14.34;40.29
28626;BME280;18905;42.668;23.364;2023-03-14T10:12:35;94868.53;;;14.70;39.46
28626;BME280;18905;42.668;23.364;2023-03-14T10:15:12;94862.97;;;14.94;39.48
28626;BME280;18905;42.668;23.364;2023-03-14T10:17:50;94865.69;;;15.56;38.92
28626;BME280;18905;42.668;23.364;2023-03-14T10:20:34;94863.13;;;15.01;38.67
28626;BME280;18905;42.668;23.364;2023-03-14T10:23:24;94856.53;;;15.64;39.23
28626;BME280;18905;42.668;23.364;2023-03-14T10:26:17;94844.97;;;15.67;38.43
28626;BME280;18905;42.668;23.364;2023-03-14T10:28:46;94830.44;;;15.44;39.35
28626;BME280;18905;42.668;23.364;2023-03-14T10:31:13;94820.44;;;15.17;39.10
28626;BME280;18905;42.668;23.364;2023-03-14T10:33:39;94823.91;;;15.33;39.73
28626;BME280;18905;42.668;23.364;2023-03-14T10:36:20;94817.91;;;15.59;39.25
28626;BME280;18905;42.668;23.364;2023-03-14T10:38:47;94805.31;;;15.85;38.84
28626;BME280;18905;42.668;23.364;2023-03-14T10:41:23;94807.56;;;16.21;38.45
28626;BME280;18905;42.668;23.364;2023-03-14T10:43:51;94810.09;;;16.30;38.34
28626;BME280;18905;42.668;23.364;2023-03-14T10:46:19;94794.19;;;16.73;37.73
28626;BME280;18905;42.668;23.364;2023-03-14T10:48:45;94775.44;;;16.30;38.35
28626;BME280;18905;42.668;23.364;2023-03-14T10:51:24;94774.63;;;16.45;37.67
28626;BME280;18905;42.668;23.364;2023-03-14T10:54:12;94758.47;;;16.18;38.05
28626;BME280;18905;42.668;23.364;2023-03-14T10:56:38;94738.03;;;16.69;37.33
28626;BME280;18905;42.668;23.364;2023-03-14T10:59:07;94753.38;;;16.54;37.42
28626;BME280;18905;42.668;23.364;2023-03-14T11:10:19;94725.38;;;16.16;38.06
28626;BME280;18905;42.668;23.364;2023-03-14T11:21:15;94697.75;;;16.81;37.03
28626;BME280;18905;42.668;23.364;2023-03-14T11:32:01;94657.66;;;17.37;36.30
28626;BME280;18905;42.668;23.364;2023-03-14T11:34:44;94656.63;;;17.45;36.78
28626;BME280;18905;42.668;23.364;2023-03-14T11:37:23;94661.19;;;16.86;37.06
28626;BME280;18905;42.668;23.364;2023-03-14T11:39:58;94650.13;;;16.49;37.35
28626;BME280;18905;42.668;23.364;2023-03-14T11:42:26;94623.53;;;16.95;37.46
28626;BME280;18905;42.668;23.364;2023-03-14T11:44:54;94633.41;;;17.03;38.25
28626;BME280;18905;42.668;23.364;2023-03-14T11:47:37;94628.88;;;17.14;36.81
28626;BME280;18905;42.668;23.364;2023-03-14T11:50:12;94623.03;;;17.15;36.47
28626;BME280;18905;42.668;23.364;2023-03-14T11:55:37;94605.38;;;16.76;36.61
28626;BME280;18905;42.668;23.364;2023-03-14T11:58:15;94610.75;;;17.28;35.77
28626;BME280;18905;42.668;23.364;2023-03-14T12:00:42;94597.00;;;15.72;37.32
28626;BME280;18905;42.668;23.364;2023-03-14T12:11:00;94583.31;;;16.62;36.38
28626;BME280;18905;42.668;23.364;2023-03-14T12:13:30;94576.50;;;16.75;36.22
28626;BME280;18905;42.668;23.364;2023-03-14T12:15:59;94562.34;;;17.22;35.56
28626;BME280;18905;42.668;23.364;2023-03-14T12:18:31;94559.47;;;17.41;34.84
28626;BME280;18905;42.668;23.364;2023-03-14T12:21:02;94521.28;;;17.44;34.51
28626;BME280;18905;42.668;23.364;2023-03-14T12:26:18;94549.19;;;18.00;34.27
28626;BME280;18905;42.668;23.364;2023-03-14T12:42:10;94523.50;;;17.35;34.34
28626;BME280;18905;42.668;23.364;2023-03-14T12:44:47;94525.44;;;18.11;33.68
28626;BME280;18905;42.668;23.364;2023-03-14T12:49:49;94518.75;;;18.52;33.30
28626;BME280;18905;42.668;23.364;2023-03-14T12:52:21;94513.63;;;18.44;33.45
28626;BME280;18905;42.668;23.364;2023-03-14T13:00:18;94486.22;;;17.43;34.19
28626;BME280;18905;42.668;23.364;2023-03-14T13:02:46;94488.16;;;17.86;34.13
28626;BME280;18905;42.668;23.364;2023-03-14T13:05:20;94484.13;;;18.16;33.63
28626;BME280;18905;42.668;23.364;2023-03-14T13:12:48;94468.31;;;17.89;33.56
28626;BME280;18905;42.668;23.364;2023-03-14T13:15:21;94454.47;;;17.68;33.62
28626;BME280;18905;42.668;23.364;2023-03-14T13:17:49;94466.91;;;17.65;33.16
28626;BME280;18905;42.668;23.364;2023-03-14T13:20:28;94449.25;;;17.99;33.09
28626;BME280;18905;42.668;23.364;2023-03-14T13:22:54;94453.38;;;17.76;33.07
28626;BME280;18905;42.668;23.364;2023-03-14T13:25:20;94446.16;;;17.54;37.19
28626;BME280;18905;42.668;23.364;2023-03-14T13:27:48;94444.47;;;18.36;38.79
28626;BME280;18905;42.668;23.364;2023-03-14T13:30:26;94438.84;;;18.87;35.03
28626;BME280;18905;42.668;23.364;2023-03-14T13:32:53;94422.19;;;18.34;32.38
28626;BME280;18905;42.668;23.364;2023-03-14T13:35:21;94429.16;;;18.25;32.49
28626;BME280;18905;42.668;23.364;2023-03-14T13:37:47;94412.41;;;17.76;32.75
28626;BME280;18905;42.668;23.364;2023-03-14T13:40:24;94412.41;;;17.72;33.23
28626;BME280;18905;42.668;23.364;2023-03-14T13:43:00;94408.94;;;17.82;32.83
28626;BME280;18905;42.668;23.364;2023-03-14T13:45:26;94401.25;;;17.98;33.54
28626;BME280;18905;42.668;23.364;2023-03-14T13:47:51;94399.16;;;17.81;33.31
28626;BME280;18905;42.668;23.364;2023-03-14T13:50:17;94390.59;;;17.83;33.71
28626;BME280;18905;42.668;23.364;2023-03-14T13:52:44;94382.78;;;17.38;33.38
28626;BME280;18905;42.668;23.364;2023-03-14T13:55:20;94367.28;;;17.02;33.94
28626;BME280;18905;42.668;23.364;2023-03-14T13:57:52;94378.38;;;17.63;33.62
28626;BME280;18905;42.668;23.364;2023-03-14T14:00:25;94384.66;;;17.70;33.25
28626;BME280;18905;42.668;23.364;2023-03-14T14:02:53;94361.91;;;17.12;33.64
28626;BME280;18905;42.668;23.364;2023-03-14T14:05:20;94346.59;;;16.97;33.51
28626;BME280;18905;42.668;23.364;2023-03-14T14:07:46;94356.94;;;17.21;34.24